createdAt,value
2023-01-18T00:00:25.474Z,5.70
2023-01-18T00:05:25.420Z,6.10
2023-01-18T00:10:25.352Z,6.50
2023-01-18T00:15:25.306Z,7.10
2023-01-18T00:20:25.205Z,7.90
2023-01-18T00:25:25.130Z,8.00
2023-01-18T00:30:25.142Z,8.80
2023-01-18T00:35:24.992Z,8.10
2023-01-18T00:40:24.962Z,8.00
2023-01-18T00:45:24.967Z,6.90
2023-01-18T00:50:24.924Z,7.20
2023-01-18T00:55:24.758Z,7.20
2023-01-18T01:00:24.686Z,7.20
2023-01-18T01:05:24.678Z,7.20
2023-01-18T01:10:24.559Z,7.30
2023-01-18T01:15:24.507Z,7.40
2023-01-18T01:20:24.475Z,7.80
2023-01-18T01:25:24.432Z,8.00
2023-01-18T01:30:24.368Z,7.50
2023-01-18T01:35:24.266Z,7.50
2023-01-18T01:40:24.202Z,8.00
2023-01-18T01:45:24.140Z,7.20
2023-01-18T01:50:24.047Z,7.10
2023-01-18T01:55:23.990Z,7.00
2023-01-18T02:00:23.972Z,6.00
2023-01-18T02:05:23.851Z,7.40
2023-01-18T02:10:24.073Z,7.40
2023-01-18T02:15:23.749Z,8.50
2023-01-18T02:20:23.657Z,8.20
2023-01-18T02:25:23.673Z,7.60
2023-01-18T02:30:23.535Z,7.20
2023-01-18T02:35:23.477Z,7.90
2023-01-18T02:40:23.402Z,7.70
2023-01-18T02:45:23.379Z,8.10
2023-01-18T02:50:23.330Z,8.00
2023-01-18T02:55:23.195Z,9.00
2023-01-18T03:00:23.166Z,8.80
2023-01-18T03:05:23.896Z,10.00
2023-01-18T03:10:23.051Z,10.80
2023-01-18T03:15:22.945Z,11.70
2023-01-18T03:20:25.356Z,11.60
2023-01-18T03:25:22.811Z,11.20
2023-01-18T03:30:22.780Z,11.40
2023-01-18T03:35:22.702Z,10.30
2023-01-18T03:40:22.626Z,10.40
2023-01-18T03:45:22.603Z,10.40
2023-01-18T03:50:22.507Z,11.00
2023-01-18T03:55:22.428Z,9.90
2023-01-18T04:00:22.387Z,9.10
2023-01-18T04:05:22.364Z,9.40
2023-01-18T04:10:22.242Z,9.70
2023-01-18T04:15:22.171Z,9.80
2023-01-18T04:20:22.141Z,10.00
2023-01-18T04:25:22.102Z,9.50
2023-01-18T04:30:21.980Z,10.70
2023-01-18T04:35:21.904Z,11.30
2023-01-18T04:40:21.869Z,11.50
2023-01-18T04:45:21.804Z,11.00
2023-01-18T04:50:21.748Z,11.10
2023-01-18T04:55:21.728Z,12.30
2023-01-18T05:00:21.652Z,11.10
2023-01-18T05:05:21.526Z,11.40
2023-01-18T05:10:21.510Z,11.60
2023-01-18T05:15:21.448Z,12.40
2023-01-18T05:20:21.346Z,12.40
2023-01-18T05:25:21.287Z,12.50
2023-01-18T05:30:21.231Z,12.60
2023-01-18T05:35:21.222Z,13.30
2023-01-18T05:40:21.156Z,13.60
2023-01-18T05:45:21.107Z,13.70
2023-01-18T05:50:20.971Z,13.80
2023-01-18T05:55:20.911Z,13.70
2023-01-18T06:00:20.862Z,13.50
2023-01-18T06:05:20.776Z,12.90
2023-01-18T06:10:20.686Z,12.00
2023-01-18T06:15:20.646Z,11.80
2023-01-18T06:20:20.565Z,11.90
2023-01-18T06:25:20.506Z,11.40
2023-01-18T06:30:20.443Z,12.20
2023-01-18T06:35:20.387Z,12.00
2023-01-18T06:40:20.310Z,12.90
2023-01-18T06:45:20.241Z,12.30
2023-01-18T06:50:20.217Z,11.30
2023-01-18T06:55:20.117Z,13.30
2023-01-18T07:00:20.064Z,12.70
2023-01-18T07:05:20.026Z,12.10
2023-01-18T07:10:19.922Z,11.10
2023-01-18T07:15:22.545Z,13.00
2023-01-18T07:20:19.999Z,13.10
2023-01-18T07:25:19.755Z,13.00
2023-01-18T07:30:19.674Z,12.90
2023-01-18T07:35:19.641Z,13.80
2023-01-18T07:40:19.539Z,12.50
2023-01-18T07:45:19.759Z,12.50
2023-01-18T07:50:19.490Z,11.40
2023-01-18T07:55:19.352Z,10.70
2023-01-18T08:00:19.327Z,9.10
2023-01-18T08:05:19.306Z,9.60
2023-01-18T08:10:19.195Z,9.60
2023-01-18T08:15:19.102Z,10.00
2023-01-18T08:20:20.028Z,10.80
2023-01-18T08:25:19.050Z,11.30
2023-01-18T08:30:23.081Z,10.10
2023-01-18T08:35:18.844Z,10.90
2023-01-18T08:40:18.866Z,11.30
2023-01-18T08:45:18.714Z,11.90
2023-01-18T08:50:18.685Z,12.80
2023-01-18T08:55:18.620Z,12.80
2023-01-18T09:00:18.530Z,13.10
2023-01-18T09:05:18.502Z,14.60
2023-01-18T09:10:18.418Z,14.70
2023-01-18T09:15:18.401Z,14.40
2023-01-18T09:20:19.186Z,13.90
2023-01-18T09:25:18.237Z,13.70
2023-01-18T09:30:18.193Z,12.20
2023-01-18T09:35:18.077Z,11.20
2023-01-18T09:40:18.033Z,10.70
2023-01-18T09:45:17.939Z,10.60
2023-01-18T09:50:17.883Z,16.30
2023-01-18T09:55:17.839Z,14.70
2023-01-18T10:00:17.796Z,12.70
2023-01-18T10:05:17.673Z,11.70
2023-01-18T10:10:17.648Z,11.20
2023-01-18T10:15:17.558Z,11.50
2023-01-18T10:20:17.499Z,11.50
2023-01-18T10:25:17.445Z,11.20
2023-01-18T10:30:17.368Z,13.20
2023-01-18T10:35:17.314Z,13.10
2023-01-18T10:40:17.236Z,11.90
2023-01-18T10:45:17.196Z,11.40
2023-01-18T10:50:17.120Z,11.80
2023-01-18T10:55:17.079Z,11.30
2023-01-18T11:00:17.009Z,11.00
2023-01-18T11:05:16.934Z,10.90
2023-01-18T11:10:16.854Z,11.10
2023-01-18T11:15:16.798Z,11.60
2023-01-18T11:20:16.839Z,12.70
2023-01-18T11:25:16.661Z,13.20
2023-01-18T11:30:16.882Z,13.30
2023-01-18T11:35:16.516Z,13.50
2023-01-18T11:40:16.564Z,13.60
2023-01-18T11:45:16.391Z,12.70
2023-01-18T11:50:22.187Z,12.50
2023-01-18T11:55:17.302Z,13.60
2023-01-18T12:00:16.282Z,12.40
2023-01-18T12:05:16.151Z,12.40
2023-01-18T12:10:16.100Z,13.10
2023-01-18T12:15:16.155Z,13.10
2023-01-18T12:20:16.080Z,12.20
2023-01-18T12:25:16.021Z,13.30
2023-01-18T12:30:15.909Z,12.50
2023-01-18T12:35:23.677Z,14.40
2023-01-18T12:40:16.803Z,13.80
2023-01-18T12:45:15.696Z,13.00
2023-01-18T12:50:15.569Z,12.60
2023-01-18T12:55:15.509Z,13.90
2023-01-18T13:00:15.479Z,14.00
2023-01-18T13:05:15.383Z,13.30
2023-01-18T13:10:15.347Z,14.30
2023-01-18T13:15:16.222Z,14.30
2023-01-18T13:20:15.280Z,13.50
2023-01-18T13:25:15.185Z,14.10
2023-01-18T13:30:15.172Z,14.30
2023-01-18T13:35:20.461Z,14.20
2023-01-18T13:40:16.261Z,14.60
2023-01-18T13:45:14.850Z,14.40
2023-01-18T13:50:14.772Z,14.40
2023-01-18T13:55:14.734Z,14.20
2023-01-18T14:00:14.966Z,14.60
2023-01-18T14:05:14.631Z,14.40
2023-01-18T14:10:14.517Z,14.80
2023-01-18T14:15:14.590Z,15.40
2023-01-18T14:20:14.387Z,15.40
2023-01-18T14:25:14.316Z,15.00
2023-01-18T14:30:14.245Z,14.30
2023-01-18T14:35:14.229Z,17.00
2023-01-18T14:40:14.117Z,16.00
2023-01-18T14:45:14.062Z,15.90
2023-01-18T14:50:14.042Z,14.60
2023-01-18T14:57:37.610Z,14.30
2023-01-18T15:05:01.170Z,13.00
2023-01-18T15:10:01.094Z,13.20
2023-01-18T15:15:01.057Z,13.90
2023-01-18T15:20:00.998Z,12.40
2023-01-18T15:25:00.925Z,11.20
2023-01-18T15:30:00.872Z,10.50
2023-01-18T15:35:00.796Z,10.10
2023-01-18T15:40:00.727Z,10.80
2023-01-18T15:45:00.674Z,11.30
2023-01-18T15:50:00.669Z,11.50
2023-01-18T15:55:00.551Z,12.50
2023-01-18T16:00:00.457Z,12.20
2023-01-18T16:05:00.414Z,11.70
2023-01-18T16:10:00.381Z,11.60
2023-01-18T16:15:00.285Z,12.00
2023-01-18T16:20:00.224Z,11.60
2023-01-18T16:25:00.181Z,11.70
2023-01-18T16:30:00.152Z,12.80
2023-01-18T16:35:00.320Z,13.40
2023-01-18T16:39:59.995Z,15.80
2023-01-18T16:44:59.983Z,13.10
2023-01-18T16:49:59.862Z,11.70
2023-01-18T16:54:59.780Z,11.90
2023-01-18T16:59:59.686Z,11.20
2023-01-18T17:04:59.668Z,10.20
2023-01-18T17:09:59.596Z,10.10
2023-01-18T17:14:59.514Z,9.80
2023-01-18T17:19:59.467Z,10.30
2023-01-18T17:24:59.396Z,9.90
2023-01-18T17:29:59.359Z,9.90
2023-01-18T17:34:59.282Z,9.70
2023-01-18T17:40:11.254Z,8.30
2023-01-18T17:45:00.233Z,7.00
2023-01-18T17:49:59.083Z,6.20
2023-01-18T17:54:59.086Z,5.30
2023-01-18T17:59:59.079Z,6.10
2023-01-18T18:04:58.929Z,7.10
2023-01-18T18:09:58.813Z,7.90
2023-01-18T18:14:58.943Z,8.80
2023-01-18T18:19:59.615Z,8.30
2023-01-18T18:24:58.724Z,7.90
2023-01-18T18:30:01.480Z,8.50
2023-01-18T18:34:58.631Z,7.80
2023-01-18T18:40:06.855Z,6.80
2023-01-18T18:44:58.348Z,5.70
2023-01-18T18:49:58.343Z,5.80
2023-01-18T18:54:58.235Z,4.90
2023-01-18T18:59:58.204Z,4.90
2023-01-18T19:04:58.102Z,5.10
2023-01-18T19:09:58.020Z,5.40
2023-01-18T19:14:57.967Z,4.70
2023-01-18T19:19:57.910Z,4.90
2023-01-18T19:24:57.946Z,4.60
2023-01-18T19:29:57.797Z,4.20
2023-01-18T19:34:57.682Z,4.30
2023-01-18T19:39:57.664Z,4.70
2023-01-18T19:44:59.325Z,4.60
2023-01-18T19:49:57.554Z,4.90
2023-01-18T19:54:57.486Z,4.40
2023-01-18T19:59:57.426Z,4.70
2023-01-18T20:04:57.323Z,4.80
2023-01-18T20:09:57.242Z,5.10
2023-01-18T20:14:57.158Z,5.70
2023-01-18T20:19:57.103Z,6.30
2023-01-18T20:24:57.052Z,5.80
2023-01-18T20:29:56.981Z,6.40
2023-01-18T20:34:56.984Z,6.10
2023-01-18T20:39:56.849Z,5.50
2023-01-18T20:44:56.768Z,6.40
2023-01-18T20:49:56.729Z,6.80
2023-01-18T20:54:56.696Z,6.70
2023-01-18T20:59:56.563Z,7.20
2023-01-18T21:04:56.534Z,7.10
2023-01-18T21:09:56.557Z,6.80
2023-01-18T21:14:56.414Z,7.20
2023-01-18T21:19:56.312Z,7.30
2023-01-18T21:24:57.278Z,7.50
2023-01-18T21:29:56.285Z,7.80
2023-01-18T21:34:56.304Z,7.80
2023-01-18T21:39:56.087Z,8.30
2023-01-18T21:44:56.352Z,8.20
2023-01-18T21:50:16.504Z,9.10
2023-01-18T21:54:56.898Z,8.50
2023-01-18T21:59:55.837Z,9.60
2023-01-18T22:04:55.774Z,9.50
2023-01-18T22:10:04.563Z,10.90
2023-01-18T22:14:56.625Z,10.50
2023-01-18T22:19:55.572Z,11.80
2023-01-18T22:24:55.550Z,11.40
2023-01-18T22:29:56.206Z,11.00
2023-01-18T22:34:55.323Z,11.60
2023-01-18T22:39:55.276Z,12.50
2023-01-18T22:44:55.204Z,11.70
2023-01-18T22:49:55.145Z,13.00
2023-01-18T22:54:55.076Z,13.50
2023-01-18T22:59:55.045Z,13.20
2023-01-18T23:04:55.050Z,12.90
2023-01-18T23:09:54.894Z,14.40
2023-01-18T23:14:54.849Z,14.30
2023-01-18T23:19:54.878Z,12.80
2023-01-18T23:24:54.889Z,12.80
2023-01-18T23:29:54.660Z,13.10
2023-01-18T23:34:54.567Z,13.10
2023-01-18T23:39:54.593Z,13.60
2023-01-18T23:44:54.422Z,13.90
2023-01-18T23:49:54.395Z,14.20
2023-01-18T23:54:54.373Z,15.10
2023-01-18T23:59:54.383Z,15.00
